GXY weather

Greeley–Weld County Airport
Greeley, Colorado, United States

Public forecast

Using degrees Fahrenheit for public forecast. Weather courtesy of forecast.io.

Current aviation weather report (METAR) for Greeley–Weld County Airport

Retrieved 2020/08/03 16:56 UTC (42 minutes ago):

KGXY 031656Z AUTO 14005KT 10SM CLR 23/15 A3018 RMK AO2 SLP181 T02330150

Closest aviation forecast (TAF) to Greeley–Weld County Airport

Closest forecast is Denver International Airport, 34.6 nm (64.1 km) S. Retrieved 2020/08/03 12:33 UTC (5 hours ago):

TAF KDEN 031131Z 0312/0418 25008KT P6SM FEW120 FM031700 01007KT P6SM FEW100 SCT150 FM032000 09010KT P6SM SCT080 BKN150 PROB30 0322/0401 VRB20G35KT -TSRA BKN070CB FM040200 15012KT P6SM FEW100 SCT150 FM040500 19008KT P6SM SCT180 FM041500 30008KT P6SM FEW100 SCT160